TimeMDT,TemperatureF,Dew PointF,Humidity,Sea Level PressureIn,VisibilityMPH,Wind Direction,Wind SpeedMPH,Gust SpeedMPH,PrecipitationIn,Events,Conditions,WindDirDegrees,DateUTC
6:15 AM,33.8,10.4,38,30.15,10.0,East,8.1,-,N/A,,Clear,80,2012-10-06 12:15:00
6:35 AM,33.8,8.6,35,30.16,10.0,East,10.4,-,N/A,,Clear,100,2012-10-06 12:35:00
6:50 AM,32.0,10.4,41,30.17,10.0,Calm,Calm,-,N/A,,Partly Cloudy,0,2012-10-06 12:50:00
8:50 AM,37.4,8.6,30,30.21,10.0,Calm,Calm,-,N/A,,Clear,0,2012-10-06 14:50:00
9:50 AM,42.8,6.8,23,30.20,10.0,Calm,Calm,-,N/A,,Clear,0,2012-10-06 15:50:00
10:50 AM,46.4,3.2,17,30.18,10.0,Variable,4.6,-,N/A,,Partly Cloudy,0,2012-10-06 16:50:00
11:50 AM,48.2,1.4,15,30.16,10.0,Calm,Calm,-,N/A,,Partly Cloudy,0,2012-10-06 17:50:00
1:50 PM,53.6,1.4,12,30.10,10.0,SSW,8.1,-,N/A,,Partly Cloudy,208,2012-10-06 19:50:00
2:50 PM,55.4,1.4,11,30.07,10.0,West,8.1,18.4,N/A,,Scattered Clouds,260,2012-10-06 20:50:00
3:50 PM,53.6,1.4,12,30.06,10.0,WSW,8.1,-,N/A,,Scattered Clouds,240,2012-10-06 21:50:00
4:50 PM,55.4,-0.4,10,30.05,10.0,WSW,9.2,-,N/A,,Scattered Clouds,240,2012-10-06 22:50:00
5:50 PM,53.6,1.4,12,30.05,10.0,West,9.2,-,N/A,,Mostly Cloudy,280,2012-10-06 23:50:00
6:50 PM,51.8,3.2,14,30.07,10.0,NW,8.1,-,N/A,,Mostly Cloudy,310,2012-10-07 00:50:00
7:15 PM,51.8,1.4,13,30.08,10.0,NNE,3.5,-,N/A,,Clear,20,2012-10-07 01:15:00
7:35 PM,48.2,5.0,17,30.09,10.0,East,5.8,-,N/A,,Clear,90,2012-10-07 01:35:00
8:15 PM,48.2,3.2,16,30.10,10.0,WNW,4.6,-,N/A,,Clear,300,2012-10-07 02:15:00
8:35 PM,46.4,3.2,17,30.11,10.0,WSW,3.5,-,N/A,,Clear,250,2012-10-07 02:35:00
8:55 PM,44.6,6.8,21,30.11,10.0,NE,5.8,-,N/A,,Clear,50,2012-10-07 02:55:00
9:15 PM,42.8,8.6,25,30.11,10.0,ENE,5.8,-,N/A,,Clear,70,2012-10-07 03:15:00
9:35 PM,42.8,6.8,23,30.11,10.0,NE,4.6,-,N/A,,Clear,50,2012-10-07 03:35:00
9:55 PM,39.2,6.8,26,30.11,10.0,East,3.5,-,N/A,,Clear,100,2012-10-07 03:55:00
10:15 PM,37.4,6.8,28,30.11,10.0,East,6.9,-,N/A,,Clear,90,2012-10-07 04:15:00